createdAt,value
2023-07-14T00:00:42.573Z,997.71
2023-07-14T00:01:42.577Z,997.68
2023-07-14T00:02:42.590Z,997.71
2023-07-14T00:03:42.550Z,997.71
2023-07-14T00:04:42.568Z,997.73
2023-07-14T00:05:42.509Z,997.73
2023-07-14T00:06:42.483Z,997.79
2023-07-14T00:07:42.475Z,997.77
2023-07-14T00:08:42.466Z,997.85
2023-07-14T00:09:42.459Z,997.84
2023-07-14T00:10:42.436Z,997.86
2023-07-14T00:11:42.438Z,997.85
2023-07-14T00:12:42.409Z,997.78
2023-07-14T00:13:42.413Z,997.79
2023-07-14T00:14:42.425Z,997.81
2023-07-14T00:15:42.385Z,997.79
2023-07-14T00:16:42.444Z,997.79
2023-07-14T00:17:42.397Z,997.75
2023-07-14T00:18:42.355Z,997.76
2023-07-14T00:19:42.339Z,997.74
2023-07-14T00:20:42.324Z,997.67
2023-07-14T00:21:42.307Z,997.61
2023-07-14T00:22:42.316Z,997.62
2023-07-14T00:23:42.285Z,997.61
2023-07-14T00:24:42.287Z,997.60
2023-07-14T00:25:42.256Z,997.60
2023-07-14T00:26:42.247Z,997.60
2023-07-14T00:27:42.234Z,997.57
2023-07-14T00:28:42.226Z,997.59
2023-07-14T00:29:42.210Z,997.57
2023-07-14T00:30:42.205Z,997.52
2023-07-14T00:31:42.326Z,997.53
2023-07-14T00:32:42.240Z,997.51
2023-07-14T00:33:42.182Z,997.54
2023-07-14T00:34:42.184Z,997.50
2023-07-14T00:35:42.155Z,997.50
2023-07-14T00:36:42.124Z,997.47
2023-07-14T00:37:42.112Z,997.53
2023-07-14T00:38:42.099Z,997.51
2023-07-14T00:39:42.095Z,997.50
2023-07-14T00:40:42.145Z,997.49
2023-07-14T00:41:42.082Z,997.44
2023-07-14T00:42:42.068Z,997.47
2023-07-14T00:43:42.040Z,997.45
2023-07-14T00:44:42.028Z,997.48
2023-07-14T00:45:42.017Z,997.51
2023-07-14T00:46:42.085Z,997.50
2023-07-14T00:47:42.051Z,997.49
2023-07-14T00:48:41.981Z,997.51
2023-07-14T00:49:41.998Z,997.50
2023-07-14T00:50:41.961Z,997.50
2023-07-14T00:51:41.937Z,997.51
2023-07-14T00:52:41.952Z,997.51
2023-07-14T00:53:41.953Z,997.47
2023-07-14T00:54:41.919Z,997.48
2023-07-14T00:55:41.909Z,997.48
2023-07-14T00:56:41.891Z,997.51
2023-07-14T00:57:41.901Z,997.46
2023-07-14T00:58:41.952Z,997.45
2023-07-14T00:59:41.918Z,997.47
2023-07-14T01:00:41.934Z,997.43
2023-07-14T01:01:41.831Z,997.41
2023-07-14T01:02:41.866Z,997.39
2023-07-14T01:03:41.933Z,997.41
2023-07-14T01:04:41.882Z,997.41
2023-07-14T01:05:41.774Z,997.42
2023-07-14T01:06:41.782Z,997.42
2023-07-14T01:07:41.760Z,997.38
2023-07-14T01:08:41.734Z,997.37
2023-07-14T01:09:41.730Z,997.38
2023-07-14T01:10:41.713Z,997.42
2023-07-14T01:11:41.701Z,997.42
2023-07-14T01:12:41.699Z,997.40
2023-07-14T01:13:41.681Z,997.42
2023-07-14T01:14:41.703Z,997.42
2023-07-14T01:15:41.700Z,997.42
2023-07-14T01:16:41.647Z,997.39
2023-07-14T01:17:41.705Z,997.42
2023-07-14T01:18:41.612Z,997.39
2023-07-14T01:19:41.616Z,997.37
2023-07-14T01:20:41.651Z,997.37
2023-07-14T01:21:41.580Z,997.35
2023-07-14T01:22:41.589Z,997.36
2023-07-14T01:23:41.552Z,997.33
2023-07-14T01:24:41.561Z,997.34
2023-07-14T01:25:41.540Z,997.33
2023-07-14T01:26:42.308Z,997.28
2023-07-14T01:27:41.502Z,997.33
2023-07-14T01:28:41.492Z,997.31
2023-07-14T01:29:41.478Z,997.26
2023-07-14T01:30:41.473Z,997.31
2023-07-14T01:31:41.538Z,997.28
2023-07-14T01:32:41.476Z,997.24
2023-07-14T01:33:41.431Z,997.22
2023-07-14T01:34:41.429Z,997.24
2023-07-14T01:35:41.417Z,997.22
2023-07-14T01:36:57.231Z,997.26
2023-07-14T01:38:48.410Z,997.25
2023-07-14T01:39:48.352Z,997.27
2023-07-14T01:41:55.329Z,997.26
2023-07-14T01:42:55.310Z,997.27
2023-07-14T01:43:55.290Z,997.30
2023-07-14T01:44:55.282Z,997.28
2023-07-14T01:45:56.212Z,997.29
2023-07-14T01:46:55.277Z,997.27
2023-07-14T01:47:55.393Z,997.28
2023-07-14T01:48:55.231Z,997.27
2023-07-14T01:49:55.212Z,997.24
2023-07-14T01:50:55.209Z,997.24
2023-07-14T01:51:55.196Z,997.24
2023-07-14T01:52:55.201Z,997.28
2023-07-14T01:53:55.197Z,997.25
2023-07-14T01:54:55.162Z,997.25
2023-07-14T01:55:55.144Z,997.28
2023-07-14T01:56:55.134Z,997.29
2023-07-14T01:57:55.111Z,997.27
2023-07-14T01:58:55.101Z,997.26
2023-07-14T01:59:55.120Z,997.25
2023-07-14T02:00:55.131Z,997.27
2023-07-14T02:01:55.097Z,997.24
2023-07-14T02:02:55.153Z,997.22
2023-07-14T02:03:55.042Z,997.23
2023-07-14T02:04:55.024Z,997.21
2023-07-14T02:05:55.014Z,997.21
2023-07-14T02:06:55.006Z,997.15
2023-07-14T02:07:54.993Z,997.18
2023-07-14T02:08:54.987Z,997.18
2023-07-14T02:09:54.966Z,997.18
2023-07-14T02:10:54.956Z,997.20
2023-07-14T02:11:54.992Z,997.12
2023-07-14T02:12:54.926Z,997.15
2023-07-14T02:13:54.912Z,997.12
2023-07-14T02:14:54.915Z,997.10
2023-07-14T02:15:54.890Z,997.09
2023-07-14T02:16:54.937Z,997.10
2023-07-14T02:17:54.923Z,997.09
2023-07-14T02:18:54.849Z,997.08
2023-07-14T02:19:54.837Z,997.08
2023-07-14T02:20:54.831Z,997.06
2023-07-14T02:21:54.808Z,997.05
2023-07-14T02:22:54.865Z,997.02
2023-07-14T02:23:54.782Z,997.02
2023-07-14T02:24:54.775Z,997.03
2023-07-14T02:25:54.760Z,997.01
2023-07-14T02:26:54.746Z,997.02
2023-07-14T02:27:54.744Z,997.04
2023-07-14T02:28:54.727Z,997.05
2023-07-14T02:29:54.711Z,997.08
2023-07-14T02:30:54.728Z,997.09
2023-07-14T02:31:54.695Z,997.06
2023-07-14T02:32:54.682Z,997.07
2023-07-14T02:33:54.656Z,997.08
2023-07-14T02:34:54.672Z,997.10
2023-07-14T02:35:54.628Z,997.10
2023-07-14T02:36:54.638Z,997.09
2023-07-14T02:37:54.609Z,997.07
2023-07-14T02:38:54.588Z,997.08
2023-07-14T02:39:54.578Z,997.09
2023-07-14T02:40:54.567Z,997.05
2023-07-14T02:41:54.570Z,997.05
2023-07-14T02:42:54.536Z,997.09
2023-07-14T02:43:54.528Z,997.06
2023-07-14T02:44:54.512Z,997.05
2023-07-14T02:45:54.527Z,997.04
2023-07-14T02:46:54.527Z,997.01
2023-07-14T02:47:54.488Z,997.00
2023-07-14T02:48:54.468Z,996.98
2023-07-14T02:49:54.469Z,996.97
2023-07-14T02:50:54.458Z,996.99
2023-07-14T02:51:54.427Z,996.97
2023-07-14T02:52:54.426Z,996.92
2023-07-14T02:53:54.455Z,996.91
2023-07-14T02:54:54.543Z,996.93
2023-07-14T02:55:54.384Z,996.88
2023-07-14T02:56:54.389Z,996.87
2023-07-14T02:57:54.357Z,996.87
2023-07-14T02:58:54.367Z,996.85
2023-07-14T02:59:54.329Z,996.86
2023-07-14T03:00:54.322Z,996.84
2023-07-14T03:01:54.333Z,996.79
2023-07-14T03:02:54.339Z,996.82
2023-07-14T03:03:54.354Z,996.81
2023-07-14T03:04:54.272Z,996.82
2023-07-14T03:05:54.257Z,996.84
2023-07-14T03:06:54.250Z,996.84
2023-07-14T03:07:54.233Z,996.91
2023-07-14T03:08:54.221Z,996.88
2023-07-14T03:09:54.207Z,996.88
2023-07-14T03:10:54.194Z,996.85
2023-07-14T03:11:54.180Z,996.85
2023-07-14T03:12:54.173Z,996.80
2023-07-14T03:13:54.160Z,996.82
2023-07-14T03:14:54.151Z,996.83
2023-07-14T03:15:54.138Z,996.80
2023-07-14T03:16:54.176Z,996.81
2023-07-14T03:17:54.255Z,996.85
2023-07-14T03:18:54.095Z,996.88
2023-07-14T03:19:54.073Z,996.89
2023-07-14T03:20:54.069Z,996.90
2023-07-14T03:21:54.056Z,996.92
2023-07-14T03:22:54.089Z,996.96
2023-07-14T03:23:54.054Z,996.98
2023-07-14T03:24:54.050Z,996.98
2023-07-14T03:25:53.999Z,996.98
2023-07-14T03:26:53.990Z,996.99
2023-07-14T03:27:53.977Z,996.97
2023-07-14T03:28:53.964Z,996.94
2023-07-14T03:29:53.952Z,996.99
2023-07-14T03:30:53.942Z,996.98
2023-07-14T03:31:53.973Z,997.00
2023-07-14T03:32:53.960Z,997.03
2023-07-14T03:33:53.915Z,996.98
2023-07-14T03:34:53.887Z,996.97
2023-07-14T03:35:53.878Z,996.93
2023-07-14T03:36:53.869Z,996.92
2023-07-14T03:37:53.853Z,996.93
2023-07-14T03:38:53.845Z,996.97
2023-07-14T03:39:53.824Z,996.92
2023-07-14T03:40:53.815Z,996.95
2023-07-14T03:41:53.799Z,996.94
2023-07-14T03:42:53.785Z,996.94
2023-07-14T03:43:53.773Z,996.93
2023-07-14T03:44:53.758Z,996.91
2023-07-14T03:45:53.801Z,996.90
2023-07-14T03:46:53.742Z,996.89
2023-07-14T03:47:53.741Z,996.92
2023-07-14T03:48:53.731Z,996.94
2023-07-14T03:49:53.694Z,996.95
2023-07-14T03:50:53.687Z,996.97
2023-07-14T03:51:53.688Z,996.96
2023-07-14T03:52:53.676Z,996.97
2023-07-14T03:53:53.674Z,996.95
2023-07-14T03:54:53.680Z,996.96
2023-07-14T03:55:53.623Z,996.96
2023-07-14T03:56:53.660Z,996.97
2023-07-14T03:58:53.586Z,996.93
2023-07-14T03:59:53.572Z,996.93
2023-07-14T04:00:53.560Z,996.91
2023-07-14T04:01:53.687Z,996.90
2023-07-14T04:02:53.585Z,996.89
2023-07-14T04:03:53.564Z,996.91
2023-07-14T04:04:53.517Z,996.86
2023-07-14T04:05:53.501Z,996.87
2023-07-14T04:06:53.486Z,996.84
2023-07-14T04:07:53.482Z,996.83
2023-07-14T04:08:53.461Z,996.86
2023-07-14T04:09:53.454Z,996.88
2023-07-14T04:10:53.453Z,996.84
2023-07-14T04:11:53.426Z,996.85
2023-07-14T04:12:53.455Z,996.87
2023-07-14T04:13:53.400Z,996.88
2023-07-14T04:14:53.506Z,996.87
2023-07-14T04:15:53.454Z,996.89
2023-07-14T04:16:53.427Z,996.88
2023-07-14T04:17:53.404Z,996.85
2023-07-14T04:18:53.360Z,996.91
2023-07-14T04:19:53.362Z,996.90
2023-07-14T04:20:53.340Z,996.88
2023-07-14T04:21:53.311Z,996.88
2023-07-14T04:22:53.428Z,996.90
2023-07-14T04:25:35.173Z,996.83
2023-07-14T04:26:26.392Z,996.85
2023-07-14T04:27:26.682Z,996.89
2023-07-14T04:28:26.395Z,996.85
2023-07-14T04:29:26.363Z,996.84
2023-07-14T04:30:26.345Z,996.81
2023-07-14T04:31:26.383Z,996.83
2023-07-14T04:32:26.364Z,996.78
2023-07-14T04:33:26.305Z,996.79
2023-07-14T04:34:26.286Z,996.84
2023-07-14T04:35:26.274Z,996.75
2023-07-14T04:36:26.262Z,996.81
2023-07-14T04:37:26.267Z,996.75
2023-07-14T04:38:26.241Z,996.79
2023-07-14T04:39:27.124Z,996.74
2023-07-14T04:40:36.205Z,996.76
2023-07-14T04:41:26.212Z,996.71
2023-07-14T04:42:26.197Z,996.70
2023-07-14T04:43:26.181Z,996.74
2023-07-14T04:44:26.167Z,996.74
2023-07-14T04:45:26.152Z,996.71
2023-07-14T04:46:26.193Z,996.72
2023-07-14T04:47:26.163Z,996.72
2023-07-14T04:48:26.109Z,996.72
2023-07-14T04:49:26.102Z,996.74
2023-07-14T04:50:26.095Z,996.74
2023-07-14T04:51:26.083Z,996.74
2023-07-14T04:52:26.069Z,996.72
2023-07-14T04:53:26.068Z,996.74
2023-07-14T04:54:26.049Z,996.76
2023-07-14T04:55:26.034Z,996.77
2023-07-14T04:56:26.047Z,996.79
2023-07-14T04:57:26.010Z,996.77
2023-07-14T04:58:25.997Z,996.75
2023-07-14T04:59:25.988Z,996.75
2023-07-14T05:00:25.969Z,996.73
2023-07-14T05:01:26.033Z,996.75
2023-07-14T05:02:26.050Z,996.81
2023-07-14T05:03:26.019Z,996.78
2023-07-14T05:04:25.937Z,996.83
2023-07-14T05:05:25.976Z,996.80
2023-07-14T05:06:25.898Z,996.80
2023-07-14T05:07:25.891Z,996.73
2023-07-14T05:08:25.882Z,996.76
2023-07-14T05:09:25.886Z,996.72
2023-07-14T05:10:25.849Z,996.76
2023-07-14T05:11:25.843Z,996.74
2023-07-14T05:12:25.831Z,996.79
2023-07-14T05:13:25.820Z,996.77
2023-07-14T05:14:25.831Z,996.78
2023-07-14T05:15:25.797Z,996.80
2023-07-14T05:16:25.869Z,996.77
2023-07-14T05:17:25.810Z,996.76
2023-07-14T05:18:25.783Z,996.74
2023-07-14T05:19:25.762Z,996.72
2023-07-14T05:20:25.740Z,996.73
2023-07-14T05:21:25.741Z,996.71
2023-07-14T05:22:25.757Z,996.73
2023-07-14T05:23:25.729Z,996.73
2023-07-14T05:24:25.700Z,996.73
2023-07-14T05:25:25.689Z,996.76
2023-07-14T05:26:25.690Z,996.73
2023-07-14T05:27:25.662Z,996.74
2023-07-14T05:28:25.651Z,996.73
2023-07-14T05:29:25.641Z,996.77
2023-07-14T05:30:25.675Z,996.79
2023-07-14T05:31:25.659Z,996.76
2023-07-14T05:32:25.800Z,996.79
2023-07-14T05:33:25.598Z,996.77
2023-07-14T05:34:25.599Z,996.78
2023-07-14T05:35:25.575Z,996.80
2023-07-14T05:36:25.565Z,996.84
2023-07-14T05:37:25.553Z,996.83
2023-07-14T05:38:25.542Z,996.83
2023-07-14T05:39:25.535Z,996.83
2023-07-14T05:40:25.754Z,996.83
2023-07-14T05:41:25.510Z,996.82
2023-07-14T05:42:25.498Z,996.83
2023-07-14T05:43:25.502Z,996.83
2023-07-14T05:44:25.474Z,996.82
2023-07-14T05:45:25.478Z,996.84
2023-07-14T05:46:28.054Z,996.82
2023-07-14T05:47:25.577Z,996.82
2023-07-14T05:48:25.430Z,996.81
2023-07-14T05:49:25.435Z,996.87
2023-07-14T05:50:25.410Z,996.79
2023-07-14T05:51:25.402Z,996.78
2023-07-14T05:52:25.393Z,996.81
2023-07-14T05:53:25.387Z,996.84
2023-07-14T05:54:25.371Z,996.83
2023-07-14T05:55:25.371Z,996.85
2023-07-14T05:56:25.352Z,996.79
2023-07-14T05:57:25.346Z,996.77
2023-07-14T05:58:25.336Z,996.79
2023-07-14T05:59:25.324Z,996.73
2023-07-14T06:00:25.311Z,996.71
2023-07-14T06:01:25.355Z,996.70
2023-07-14T06:02:25.318Z,996.74
2023-07-14T06:03:25.447Z,996.71
2023-07-14T06:04:25.274Z,996.67
2023-07-14T06:05:25.263Z,996.68
2023-07-14T06:06:25.251Z,996.63
2023-07-14T06:07:25.242Z,996.63
2023-07-14T06:08:25.230Z,996.60
2023-07-14T06:09:25.224Z,996.57
2023-07-14T06:10:25.213Z,996.60
2023-07-14T06:11:25.198Z,996.63
2023-07-14T06:12:25.197Z,996.66
2023-07-14T06:13:25.193Z,996.62
2023-07-14T06:14:25.963Z,996.61
2023-07-14T06:15:25.169Z,996.64
2023-07-14T06:16:25.223Z,996.63
2023-07-14T06:17:25.249Z,996.69
2023-07-14T06:18:25.132Z,996.66
2023-07-14T06:19:25.126Z,996.65
2023-07-14T06:20:25.114Z,996.65
2023-07-14T06:21:25.108Z,996.64
2023-07-14T06:22:25.166Z,996.64
2023-07-14T06:23:25.147Z,996.63
2023-07-14T06:24:25.082Z,996.65
2023-07-14T06:25:25.072Z,996.66
2023-07-14T06:26:25.064Z,996.63
2023-07-14T06:27:25.062Z,996.65
2023-07-14T06:28:25.039Z,996.66
2023-07-14T06:29:25.032Z,996.63
2023-07-14T06:30:25.022Z,996.63
2023-07-14T06:31:25.087Z,996.60
2023-07-14T06:32:25.029Z,996.62
2023-07-14T06:33:24.993Z,996.60
2023-07-14T06:34:24.989Z,996.59
2023-07-14T06:35:24.983Z,996.63
2023-07-14T06:36:25.004Z,996.59
2023-07-14T06:37:24.967Z,996.63
2023-07-14T06:38:24.964Z,996.65
2023-07-14T06:39:24.948Z,996.62
2023-07-14T06:40:24.932Z,996.59
2023-07-14T06:41:24.924Z,996.63
2023-07-14T06:42:24.939Z,996.60
2023-07-14T06:43:24.904Z,996.57
2023-07-14T06:44:26.428Z,996.61
2023-07-14T06:45:24.898Z,996.61
2023-07-14T06:46:24.914Z,996.57
2023-07-14T06:47:24.907Z,996.58
2023-07-14T06:48:24.864Z,996.60
2023-07-14T06:49:27.028Z,996.60
2023-07-14T06:50:24.861Z,996.61
2023-07-14T06:51:24.835Z,996.59
2023-07-14T06:52:24.828Z,996.59
2023-07-14T06:53:24.820Z,996.60
2023-07-14T06:54:24.815Z,996.61
2023-07-14T06:55:24.810Z,996.63
2023-07-14T06:56:24.796Z,996.57
2023-07-14T06:57:24.799Z,996.61
2023-07-14T06:58:24.832Z,996.66
2023-07-14T06:59:24.776Z,996.62
2023-07-14T07:00:24.766Z,996.65
2023-07-14T07:01:24.819Z,996.62
2023-07-14T07:02:24.776Z,996.58
2023-07-14T07:03:36.121Z,996.54
2023-07-14T07:05:42.072Z,996.52
2023-07-14T07:06:31.964Z,996.51
2023-07-14T07:08:32.439Z,996.55
2023-07-14T07:09:32.462Z,996.56
2023-07-14T07:10:32.436Z,996.58
2023-07-14T07:11:32.460Z,996.58
2023-07-14T07:12:32.414Z,996.57
2023-07-14T07:13:32.396Z,996.61
2023-07-14T07:14:32.435Z,996.67
2023-07-14T07:15:32.398Z,996.67
2023-07-14T07:16:32.412Z,996.69
2023-07-14T07:17:32.410Z,996.71
2023-07-14T07:18:32.442Z,996.69
2023-07-14T07:19:32.367Z,996.66
2023-07-14T07:20:32.367Z,996.63
2023-07-14T07:21:32.405Z,996.64
2023-07-14T07:22:32.399Z,996.68
2023-07-14T07:23:32.410Z,996.68
2023-07-14T07:24:32.380Z,996.66
2023-07-14T07:25:32.324Z,996.66
2023-07-14T07:26:32.358Z,996.66
2023-07-14T07:27:32.398Z,996.67
2023-07-14T07:28:32.323Z,996.66
2023-07-14T07:29:32.313Z,996.80
2023-07-14T07:30:32.325Z,996.76
2023-07-14T07:31:32.313Z,996.74
2023-07-14T07:32:32.307Z,996.70
2023-07-14T07:33:32.288Z,996.63
2023-07-14T07:34:32.294Z,996.73
2023-07-14T07:35:32.286Z,996.62
2023-07-14T07:36:32.328Z,996.74
2023-07-14T07:37:32.286Z,996.71
2023-07-14T07:38:32.275Z,996.66
2023-07-14T07:39:32.282Z,996.60
2023-07-14T07:40:32.293Z,996.66
2023-07-14T07:41:32.266Z,996.59
2023-07-14T07:42:32.265Z,996.62
2023-07-14T07:43:32.285Z,996.64
2023-07-14T07:44:32.270Z,996.70
2023-07-14T07:45:32.259Z,996.73
2023-07-14T07:46:32.252Z,996.75
2023-07-14T07:47:32.286Z,996.68
2023-07-14T07:48:32.255Z,996.71
2023-07-14T07:49:32.234Z,996.75
2023-07-14T07:50:32.247Z,996.76
2023-07-14T07:51:32.303Z,996.72
2023-07-14T07:52:32.235Z,996.66
2023-07-14T07:53:32.344Z,996.74
2023-07-14T07:54:32.234Z,996.68
2023-07-14T07:55:32.226Z,996.74
2023-07-14T07:56:32.266Z,996.74
2023-07-14T07:57:32.223Z,996.74
2023-07-14T07:58:32.232Z,996.76
2023-07-14T07:59:32.223Z,996.76
2023-07-14T08:00:32.223Z,996.72
2023-07-14T08:01:32.322Z,996.67
2023-07-14T08:02:32.292Z,996.61
2023-07-14T08:03:32.387Z,996.54
2023-07-14T08:04:32.260Z,996.46
2023-07-14T08:05:32.244Z,996.52
2023-07-14T08:06:32.232Z,996.52
2023-07-14T08:07:32.231Z,996.51
2023-07-14T08:08:32.225Z,996.42
2023-07-14T08:09:32.263Z,996.36
2023-07-14T08:10:32.219Z,996.38
2023-07-14T08:11:32.226Z,996.43
2023-07-14T08:12:32.227Z,996.40
2023-07-14T08:13:32.244Z,996.47
2023-07-14T08:14:32.231Z,996.45
2023-07-14T08:15:32.240Z,996.52
2023-07-14T08:16:32.249Z,996.58
2023-07-14T08:17:32.243Z,996.57
2023-07-14T08:18:32.249Z,996.46
2023-07-14T08:19:32.228Z,996.38
2023-07-14T08:20:32.241Z,996.37
2023-07-14T08:21:32.229Z,996.37
2023-07-14T08:22:32.244Z,996.49
2023-07-14T08:23:32.241Z,996.35
2023-07-14T08:24:32.225Z,996.40
2023-07-14T08:25:32.288Z,996.57
2023-07-14T08:26:32.234Z,996.53
2023-07-14T08:27:32.226Z,996.67
2023-07-14T08:28:32.258Z,996.60
2023-07-14T08:29:32.239Z,996.39
2023-07-14T08:30:32.240Z,996.38
2023-07-14T08:31:32.288Z,996.31
2023-07-14T08:32:32.306Z,996.41
2023-07-14T08:33:32.386Z,996.37
2023-07-14T08:34:32.318Z,996.21
2023-07-14T08:35:32.334Z,996.24
2023-07-14T08:36:32.233Z,996.39
2023-07-14T08:37:32.234Z,996.25
2023-07-14T08:38:32.240Z,996.27
2023-07-14T08:39:32.234Z,996.17
2023-07-14T08:40:32.240Z,996.26
2023-07-14T08:41:32.239Z,996.28
2023-07-14T08:42:32.265Z,996.18
2023-07-14T08:43:32.246Z,996.20
2023-07-14T08:44:32.242Z,996.25
2023-07-14T08:45:32.246Z,996.34
2023-07-14T08:46:32.429Z,996.43
2023-07-14T08:47:32.311Z,996.40
2023-07-14T08:48:32.284Z,996.32
2023-07-14T08:49:32.263Z,996.40
2023-07-14T08:50:32.259Z,996.37
2023-07-14T08:51:32.248Z,996.32
2023-07-14T08:52:33.148Z,996.30
2023-07-14T08:53:32.276Z,996.31
2023-07-14T08:54:32.256Z,996.38
2023-07-14T08:55:32.250Z,996.32
2023-07-14T08:56:32.257Z,996.23
2023-07-14T08:57:32.284Z,996.21
2023-07-14T08:58:32.265Z,996.10
2023-07-14T08:59:32.295Z,996.08
2023-07-14T09:00:32.264Z,996.03
2023-07-14T09:01:32.365Z,996.03
2023-07-14T09:02:32.290Z,996.07
2023-07-14T09:03:32.271Z,996.19
2023-07-14T09:04:32.327Z,996.12
2023-07-14T09:05:32.274Z,996.16
2023-07-14T09:06:32.274Z,996.26
2023-07-14T09:07:32.278Z,996.25
2023-07-14T09:08:32.304Z,996.37
2023-07-14T09:09:32.294Z,996.39
2023-07-14T09:10:33.145Z,996.34
2023-07-14T09:11:32.289Z,996.35
2023-07-14T09:12:32.284Z,996.43
2023-07-14T09:13:32.337Z,996.44
2023-07-14T09:14:32.347Z,996.32
2023-07-14T09:15:32.290Z,996.24
2023-07-14T09:16:32.316Z,996.21
2023-07-14T09:17:32.354Z,996.22
2023-07-14T09:18:32.372Z,996.27
2023-07-14T09:19:32.298Z,996.29
2023-07-14T09:20:32.332Z,996.28
2023-07-14T09:21:32.312Z,996.35
2023-07-14T09:22:32.309Z,996.26
2023-07-14T09:23:32.302Z,996.15
2023-07-14T09:24:32.338Z,996.04
2023-07-14T09:25:32.309Z,996.20
2023-07-14T09:26:32.313Z,996.34
2023-07-14T09:27:32.313Z,996.40
2023-07-14T09:28:32.324Z,996.37
2023-07-14T09:29:32.347Z,996.33
2023-07-14T09:30:32.318Z,996.34
2023-07-14T09:31:32.377Z,996.34
2023-07-14T09:32:32.374Z,996.29
2023-07-14T09:33:32.326Z,996.29
2023-07-14T09:34:32.392Z,996.21
2023-07-14T09:35:32.340Z,996.18
2023-07-14T09:36:32.339Z,996.23
2023-07-14T09:37:32.346Z,996.19
2023-07-14T09:38:32.342Z,996.15
2023-07-14T09:39:32.346Z,996.10
2023-07-14T09:40:32.404Z,995.98
2023-07-14T09:41:32.384Z,996.13
2023-07-14T09:42:32.390Z,996.23
2023-07-14T09:43:32.366Z,996.16
2023-07-14T09:44:32.365Z,995.84
2023-07-14T09:45:32.409Z,996.04
2023-07-14T09:46:32.381Z,996.08
2023-07-14T09:47:32.441Z,996.28
2023-07-14T09:48:32.398Z,996.23
2023-07-14T09:49:32.392Z,996.26
2023-07-14T09:50:32.396Z,996.16
2023-07-14T09:51:32.395Z,996.10
2023-07-14T09:52:32.391Z,996.12
2023-07-14T09:53:32.436Z,996.29
2023-07-14T09:54:32.402Z,996.15
2023-07-14T09:55:32.437Z,996.10
2023-07-14T09:56:32.421Z,996.10
2023-07-14T09:57:39.483Z,996.03
2023-07-14T09:58:32.460Z,996.08
2023-07-14T09:59:32.470Z,996.11
2023-07-14T10:00:32.433Z,996.10
2023-07-14T10:01:32.530Z,996.02
2023-07-14T10:02:32.458Z,996.10
2023-07-14T10:03:43.696Z,996.00
2023-07-14T10:04:32.492Z,996.01
2023-07-14T10:05:32.447Z,996.11
2023-07-14T10:06:32.448Z,995.86
2023-07-14T10:07:32.465Z,995.98
2023-07-14T10:08:32.482Z,995.99
2023-07-14T10:09:32.466Z,995.94
2023-07-14T10:10:32.471Z,995.93
2023-07-14T10:11:32.479Z,995.91
2023-07-14T10:12:32.494Z,995.94
2023-07-14T10:13:32.490Z,995.86
2023-07-14T10:14:32.497Z,995.77
2023-07-14T10:15:32.528Z,995.67
2023-07-14T10:16:32.508Z,995.61
2023-07-14T10:17:32.559Z,995.58
2023-07-14T10:18:32.636Z,995.54
2023-07-14T10:19:32.527Z,995.57
2023-07-14T10:20:32.530Z,995.53
2023-07-14T10:21:32.528Z,995.46
2023-07-14T10:22:32.596Z,995.45
2023-07-14T10:23:32.534Z,995.41
2023-07-14T10:24:32.544Z,995.44
2023-07-14T10:25:32.548Z,995.46
2023-07-14T10:26:32.545Z,995.38
2023-07-14T10:27:32.588Z,995.35
2023-07-14T10:28:32.546Z,995.30
2023-07-14T10:29:32.551Z,995.31
2023-07-14T10:30:32.547Z,995.32
2023-07-14T10:31:32.597Z,995.26
2023-07-14T10:32:32.638Z,995.22
2023-07-14T10:33:32.640Z,995.25
2023-07-14T10:34:32.551Z,995.29
2023-07-14T10:35:32.557Z,995.27
2023-07-14T10:36:32.554Z,995.33
2023-07-14T10:37:32.555Z,995.40
2023-07-14T10:38:33.362Z,995.51
2023-07-14T10:39:32.555Z,995.58
2023-07-14T10:40:32.564Z,995.70
2023-07-14T10:41:32.649Z,995.61
2023-07-14T10:42:32.568Z,995.71
2023-07-14T10:43:32.550Z,995.93
2023-07-14T10:44:32.560Z,995.95
2023-07-14T10:45:32.557Z,995.95
2023-07-14T10:46:32.663Z,995.98
2023-07-14T10:47:32.591Z,995.97
2023-07-14T10:48:32.558Z,995.91
2023-07-14T10:49:32.581Z,995.84
2023-07-14T10:50:32.557Z,995.87
2023-07-14T10:51:32.559Z,995.99
2023-07-14T10:52:32.556Z,995.88
2023-07-14T10:53:32.606Z,995.95
2023-07-14T10:54:32.576Z,995.94
2023-07-14T10:55:32.567Z,995.85
2023-07-14T10:56:32.594Z,995.57
2023-07-14T10:57:32.564Z,995.50
2023-07-14T10:58:32.570Z,996.00
2023-07-14T10:59:32.601Z,995.95
2023-07-14T11:00:32.601Z,995.94
2023-07-14T11:01:32.626Z,995.86
2023-07-14T11:02:32.638Z,995.79
2023-07-14T11:03:32.650Z,995.78
2023-07-14T11:04:32.641Z,995.80
2023-07-14T11:05:32.631Z,995.75
2023-07-14T11:06:32.651Z,995.11
2023-07-14T11:07:32.615Z,995.13
2023-07-14T11:08:32.614Z,995.16
2023-07-14T11:09:32.648Z,995.08
2023-07-14T11:10:32.620Z,995.05
2023-07-14T11:11:32.628Z,995.14
2023-07-14T11:12:32.623Z,995.17
2023-07-14T11:13:32.629Z,995.22
2023-07-14T11:14:32.632Z,995.14
2023-07-14T11:15:32.641Z,995.15
2023-07-14T11:16:32.786Z,995.06
2023-07-14T11:17:32.666Z,995.05
2023-07-14T11:18:32.666Z,995.02
2023-07-14T11:19:45.019Z,995.01
2023-07-14T11:20:32.654Z,994.99
2023-07-14T11:21:32.690Z,994.89
2023-07-14T11:22:32.696Z,994.85
2023-07-14T11:23:32.661Z,994.89
2023-07-14T11:24:32.659Z,994.83
2023-07-14T11:25:32.662Z,994.86
2023-07-14T11:26:32.660Z,994.88
2023-07-14T11:27:32.686Z,994.89
2023-07-14T11:28:32.664Z,994.84
2023-07-14T11:29:32.673Z,994.79
2023-07-14T11:30:32.685Z,994.85
2023-07-14T11:31:32.729Z,994.81
2023-07-14T11:32:32.695Z,994.78
2023-07-14T11:33:32.710Z,994.76
2023-07-14T11:34:32.668Z,994.79
2023-07-14T11:35:32.672Z,994.76
2023-07-14T11:36:32.668Z,994.74
2023-07-14T11:37:32.716Z,994.74
2023-07-14T11:38:32.683Z,994.77
2023-07-14T11:39:32.699Z,994.81
2023-07-14T11:40:32.664Z,994.74
2023-07-14T11:41:32.655Z,994.80
2023-07-14T11:42:32.686Z,994.77
2023-07-14T11:43:32.674Z,994.81
2023-07-14T11:44:32.657Z,994.80
2023-07-14T11:45:32.645Z,994.79
2023-07-14T11:46:32.736Z,994.74
2023-07-14T11:47:32.667Z,994.75
2023-07-14T11:48:32.646Z,994.74
2023-07-14T11:49:32.669Z,994.73
2023-07-14T11:51:34.255Z,994.64
2023-07-14T11:52:32.648Z,994.59
2023-07-14T11:53:32.626Z,994.58
2023-07-14T11:54:32.636Z,994.51
2023-07-14T11:55:32.624Z,994.48
2023-07-14T11:56:32.674Z,994.46
2023-07-14T11:57:32.646Z,994.45
2023-07-14T11:58:32.616Z,994.43
2023-07-14T11:59:32.664Z,994.42
2023-07-14T12:00:32.620Z,994.42
2023-07-14T12:01:32.598Z,994.43
2023-07-14T12:02:32.667Z,994.41
2023-07-14T12:03:35.584Z,994.43
2023-07-14T12:04:33.587Z,994.42
2023-07-14T12:05:32.578Z,994.39
2023-07-14T12:06:32.574Z,994.29
2023-07-14T12:07:32.570Z,994.23
2023-07-14T12:08:32.593Z,994.15
2023-07-14T12:09:32.580Z,994.12
2023-07-14T12:10:32.588Z,994.11
2023-07-14T12:11:41.052Z,994.09
2023-07-14T12:12:32.582Z,994.19
2023-07-14T12:13:32.556Z,994.18
2023-07-14T12:14:32.585Z,994.26
2023-07-14T12:15:32.563Z,994.26
2023-07-14T12:16:32.609Z,994.32
2023-07-14T12:17:32.544Z,994.37
2023-07-14T12:18:32.535Z,994.37
2023-07-14T12:19:32.518Z,994.43
2023-07-14T12:20:32.516Z,994.44
2023-07-14T12:21:32.539Z,994.38
2023-07-14T12:22:32.568Z,994.34
2023-07-14T12:23:32.509Z,994.26
2023-07-14T12:24:32.551Z,994.21
2023-07-14T12:25:32.594Z,994.14
2023-07-14T12:26:32.501Z,994.14
2023-07-14T12:27:32.492Z,994.10
2023-07-14T12:28:32.538Z,994.10
2023-07-14T12:29:41.229Z,994.05
2023-07-14T12:30:32.500Z,994.06
2023-07-14T12:31:32.507Z,994.01
2023-07-14T12:32:32.466Z,993.97
2023-07-14T12:33:32.463Z,993.95
2023-07-14T12:34:32.476Z,993.89
2023-07-14T12:35:32.457Z,993.83
2023-07-14T12:36:32.459Z,993.86